createdAt,value
2022-11-30T00:00:44.953Z,31.23
2022-11-30T00:05:47.820Z,27.73
2022-11-30T00:10:50.383Z,24.80
2022-11-30T00:15:52.969Z,28.67
2022-11-30T00:20:57.265Z,27.40
2022-11-30T00:26:03.760Z,37.77
2022-11-30T00:31:10.605Z,29.57
2022-11-30T00:36:16.078Z,28.00
2022-11-30T00:41:20.499Z,27.43
2022-11-30T00:46:23.093Z,31.43
2022-11-30T00:51:25.671Z,26.33
2022-11-30T00:56:28.955Z,25.80
2022-11-30T01:01:31.848Z,33.47
2022-11-30T01:06:34.866Z,27.03
2022-11-30T01:11:37.433Z,24.10
2022-11-30T01:16:40.015Z,29.50
2022-11-30T01:21:42.764Z,31.83
2022-11-30T01:26:45.345Z,28.30
2022-11-30T01:31:47.905Z,27.67
2022-11-30T01:36:50.486Z,28.03
2022-11-30T01:41:55.147Z,33.20
2022-11-30T01:47:03.087Z,27.07
2022-11-30T01:52:10.711Z,28.90
2022-11-30T01:57:24.205Z,30.17
2022-11-30T02:02:34.212Z,26.50
2022-11-30T02:07:37.190Z,25.97
2022-11-30T02:12:56.558Z,23.67
2022-11-30T02:18:32.238Z,29.37
2022-11-30T02:24:05.423Z,24.00
2022-11-30T02:29:19.899Z,23.30
2022-11-30T02:34:25.817Z,20.50
2022-11-30T02:39:28.407Z,28.87
2022-11-30T02:44:31.454Z,23.87
2022-11-30T02:49:46.701Z,27.30
2022-11-30T02:54:49.724Z,20.63
2022-11-30T02:59:52.935Z,25.10
2022-11-30T03:04:55.493Z,28.27
2022-11-30T03:09:59.997Z,26.57
2022-11-30T03:15:02.580Z,22.90
2022-11-30T03:20:07.366Z,26.10
2022-11-30T03:25:10.381Z,25.57
2022-11-30T03:30:13.232Z,23.77
2022-11-30T03:35:15.867Z,22.80
2022-11-30T03:40:18.837Z,32.93
2022-11-30T03:45:21.353Z,26.67
2022-11-30T03:50:23.918Z,23.70
2022-11-30T03:55:26.479Z,31.43
2022-11-30T04:00:29.102Z,28.10
2022-11-30T04:05:32.186Z,30.73
2022-11-30T04:10:35.048Z,26.70
2022-11-30T04:15:37.641Z,25.40
2022-11-30T04:20:40.894Z,25.13
2022-11-30T04:25:43.508Z,31.50
2022-11-30T04:30:46.615Z,28.03
2022-11-30T04:35:52.050Z,24.93
2022-11-30T04:40:54.744Z,30.17
2022-11-30T04:45:57.304Z,29.17
2022-11-30T04:51:06.021Z,24.80
2022-11-30T04:56:10.598Z,37.43
2022-11-30T05:01:13.217Z,28.43
2022-11-30T05:06:15.782Z,26.97
2022-11-30T05:11:18.346Z,25.13
2022-11-30T05:16:20.985Z,25.97
2022-11-30T05:21:24.043Z,29.23
2022-11-30T05:26:26.684Z,28.60
2022-11-30T05:31:29.317Z,29.20
2022-11-30T05:36:31.907Z,29.63
2022-11-30T05:41:34.484Z,26.73
2022-11-30T05:46:40.948Z,27.20
2022-11-30T05:51:43.751Z,32.33
2022-11-30T05:56:50.313Z,32.97
2022-11-30T06:01:57.092Z,45.90
2022-11-30T06:07:00.034Z,38.23
2022-11-30T06:12:02.559Z,43.93
2022-11-30T06:17:05.138Z,45.40
2022-11-30T06:22:07.619Z,45.07
2022-11-30T06:27:10.190Z,47.40
2022-11-30T06:32:12.784Z,49.30
2022-11-30T06:37:15.452Z,41.37
2022-11-30T06:42:19.787Z,34.57
2022-11-30T06:47:22.284Z,46.87
2022-11-30T06:52:25.055Z,37.53
2022-11-30T06:57:30.551Z,36.73
2022-11-30T07:02:33.044Z,33.10
2022-11-30T07:07:36.289Z,30.60
2022-11-30T07:12:38.775Z,33.90
2022-11-30T07:17:41.262Z,36.00
2022-11-30T07:22:43.886Z,38.37
2022-11-30T07:27:46.487Z,38.47
2022-11-30T07:32:49.583Z,32.13
2022-11-30T07:37:52.199Z,38.07
2022-11-30T07:42:57.819Z,36.57
2022-11-30T07:48:00.449Z,39.83
2022-11-30T07:53:03.159Z,38.47
2022-11-30T07:58:06.037Z,41.00
2022-11-30T08:03:08.756Z,44.03
2022-11-30T08:08:11.295Z,36.90
2022-11-30T08:13:13.888Z,42.13
2022-11-30T08:18:16.454Z,40.63
2022-11-30T08:23:19.052Z,50.07
2022-11-30T08:28:21.871Z,37.37
2022-11-30T08:33:24.671Z,41.83
2022-11-30T08:38:28.410Z,42.77
2022-11-30T08:43:31.194Z,38.77
2022-11-30T08:48:34.978Z,39.23
2022-11-30T08:53:38.371Z,47.43
2022-11-30T08:58:41.635Z,36.13
2022-11-30T09:03:47.052Z,33.87
2022-11-30T09:08:51.579Z,36.03
2022-11-30T09:13:55.863Z,38.30
2022-11-30T09:18:58.502Z,41.87
2022-11-30T09:24:01.292Z,45.17
2022-11-30T09:29:04.174Z,39.43
2022-11-30T09:34:06.848Z,39.73
2022-11-30T09:39:13.162Z,40.33
2022-11-30T09:44:33.995Z,36.13
2022-11-30T09:49:40.984Z,34.77
2022-11-30T09:54:45.846Z,34.87
2022-11-30T09:59:54.987Z,36.07
2022-11-30T10:04:58.439Z,36.47
2022-11-30T10:10:34.266Z,46.60
2022-11-30T10:15:54.369Z,45.10
2022-11-30T10:21:12.274Z,40.63
2022-11-30T10:26:16.773Z,42.40
2022-11-30T10:31:28.733Z,41.67
2022-11-30T10:36:39.698Z,39.47
2022-11-30T10:41:56.080Z,41.90
2022-11-30T10:47:03.242Z,44.60
2022-11-30T10:52:08.966Z,43.37
2022-11-30T10:57:14.621Z,51.47
2022-11-30T11:02:35.890Z,49.80
2022-11-30T11:07:49.650Z,48.45
2022-11-30T11:12:54.800Z,45.73
2022-11-30T11:18:16.057Z,43.07
2022-11-30T11:23:27.461Z,46.63
2022-11-30T11:28:31.523Z,45.75
2022-11-30T11:33:34.315Z,43.87
2022-11-30T11:38:43.854Z,45.53
2022-11-30T11:44:16.804Z,45.07
2022-11-30T11:49:24.031Z,42.43
2022-11-30T11:54:35.681Z,47.23
2022-11-30T11:59:46.106Z,46.55
2022-11-30T12:04:57.863Z,45.30
2022-11-30T12:10:16.684Z,44.95
2022-11-30T12:15:41.816Z,43.00
2022-11-30T12:21:10.403Z,48.27
2022-11-30T12:26:51.020Z,47.13
2022-11-30T12:32:03.075Z,44.07
2022-11-30T12:37:30.966Z,52.10
2022-11-30T12:43:07.235Z,46.43
2022-11-30T12:48:35.136Z,40.43
2022-11-30T12:53:59.206Z,43.80
2022-11-30T12:59:17.787Z,50.27
2022-11-30T13:04:42.952Z,45.03
2022-11-30T13:09:52.218Z,50.63
2022-11-30T13:14:59.783Z,47.53
2022-11-30T13:20:12.171Z,41.17
2022-11-30T13:26:06.271Z,43.93
2022-11-30T13:31:01.758Z,43.00
2022-11-30T13:36:07.114Z,43.40
2022-11-30T13:41:10.424Z,41.77
2022-11-30T13:46:16.218Z,49.50
2022-11-30T13:51:40.008Z,49.47
2022-11-30T13:56:48.425Z,52.50
2022-11-30T14:07:35.572Z,52.10
2022-11-30T14:12:45.936Z,41.83
2022-11-30T14:17:49.288Z,46.33
2022-11-30T14:22:52.425Z,50.60
2022-11-30T14:27:57.642Z,49.37
2022-11-30T14:33:15.297Z,49.87
2022-11-30T14:43:33.455Z,52.03
2022-11-30T14:48:36.241Z,54.80
2022-11-30T14:53:44.868Z,44.87
2022-11-30T14:58:53.198Z,48.17
2022-11-30T15:04:01.939Z,46.83
2022-11-30T15:09:05.417Z,50.03
2022-11-30T15:14:10.816Z,50.67
2022-11-30T15:19:22.298Z,41.93
2022-11-30T15:29:35.988Z,37.67
2022-11-30T15:34:56.835Z,46.20
2022-11-30T15:40:03.218Z,45.30
2022-11-30T15:45:26.732Z,49.77
2022-11-30T15:50:29.343Z,51.83
2022-11-30T15:55:47.567Z,59.10
2022-11-30T16:01:05.639Z,50.53
2022-11-30T16:06:18.590Z,51.77
2022-11-30T16:11:21.424Z,51.17
2022-11-30T16:16:32.295Z,51.27
2022-11-30T16:21:35.099Z,36.72
2022-11-30T16:26:53.110Z,48.37
2022-11-30T16:31:56.023Z,56.13
2022-11-30T16:36:58.941Z,52.73
2022-11-30T16:42:01.551Z,68.17
2022-11-30T16:47:04.259Z,61.73
2022-11-30T16:52:09.529Z,52.83
2022-11-30T16:57:12.072Z,60.10
2022-11-30T17:02:21.937Z,50.50
2022-11-30T17:07:24.637Z,51.67
2022-11-30T17:12:27.200Z,57.67
2022-11-30T17:17:29.804Z,55.90
2022-11-30T17:22:33.922Z,52.27
2022-11-30T17:27:36.485Z,50.47
2022-11-30T17:32:39.325Z,51.80
2022-11-30T17:37:41.871Z,49.70
2022-11-30T17:42:45.253Z,46.37
2022-11-30T17:47:47.885Z,50.03
2022-11-30T17:52:50.495Z,50.93
2022-11-30T17:57:53.212Z,51.67
2022-11-30T18:02:55.922Z,49.83
2022-11-30T18:07:58.851Z,46.23
2022-11-30T18:13:01.478Z,52.17
2022-11-30T18:18:04.166Z,47.73
2022-11-30T18:23:07.387Z,54.10
2022-11-30T18:28:10.043Z,53.90
2022-11-30T18:33:12.605Z,53.93
2022-11-30T18:38:15.878Z,55.00
2022-11-30T18:43:18.539Z,52.23
2022-11-30T18:48:21.150Z,53.77
2022-11-30T18:53:23.919Z,50.87
2022-11-30T18:58:26.536Z,51.93
2022-11-30T19:03:29.810Z,51.60
2022-11-30T19:08:32.520Z,49.30
2022-11-30T19:13:36.007Z,49.53
2022-11-30T19:18:38.999Z,49.80
2022-11-30T19:23:41.707Z,48.57
2022-11-30T19:28:45.610Z,51.70
2022-11-30T19:33:50.463Z,48.13
2022-11-30T19:38:53.801Z,54.20
2022-11-30T19:44:03.270Z,52.40
2022-11-30T19:49:08.596Z,61.90
2022-11-30T19:54:11.196Z,48.00
2022-11-30T19:59:13.712Z,53.47
2022-11-30T20:04:16.452Z,51.97
2022-11-30T20:09:19.064Z,53.87
2022-11-30T20:14:23.459Z,48.77
2022-11-30T20:19:26.015Z,54.13
2022-11-30T20:24:28.748Z,49.67
2022-11-30T20:29:31.333Z,53.23
2022-11-30T20:34:39.710Z,60.20
2022-11-30T20:39:46.197Z,54.90
2022-11-30T20:44:49.832Z,98.73
2022-11-30T20:49:52.612Z,54.40
2022-11-30T20:54:55.198Z,50.93
2022-11-30T20:59:57.797Z,54.87
2022-11-30T21:05:00.408Z,55.63
2022-11-30T21:10:03.983Z,55.00
2022-11-30T21:15:07.376Z,51.03
2022-11-30T21:20:10.496Z,44.33
2022-11-30T21:25:13.102Z,48.57
2022-11-30T21:30:15.693Z,48.77
2022-11-30T21:35:18.271Z,51.20
2022-11-30T21:40:21.418Z,49.37
2022-11-30T21:45:24.029Z,49.43
2022-11-30T21:50:27.439Z,46.57
2022-11-30T21:55:30.106Z,50.63
2022-11-30T22:00:32.666Z,55.43
2022-11-30T22:05:35.251Z,41.40
2022-11-30T22:10:37.939Z,49.83
2022-11-30T22:15:40.592Z,53.57
2022-11-30T22:20:43.283Z,52.70
2022-11-30T22:25:45.959Z,49.17
2022-11-30T22:30:48.553Z,52.80
2022-11-30T22:35:51.117Z,53.97
2022-11-30T22:40:53.667Z,51.30
2022-11-30T22:46:06.170Z,56.67
2022-11-30T22:51:11.792Z,48.07
2022-11-30T22:56:20.531Z,47.77
2022-11-30T23:01:25.713Z,55.10
2022-11-30T23:06:28.852Z,53.40
2022-11-30T23:11:31.994Z,48.63
2022-11-30T23:16:38.033Z,51.07
2022-11-30T23:21:42.472Z,53.07
2022-11-30T23:26:45.157Z,60.10
2022-11-30T23:31:48.431Z,47.73
2022-11-30T23:36:51.553Z,48.00
2022-11-30T23:41:54.066Z,53.60
2022-11-30T23:46:57.312Z,53.27
2022-11-30T23:52:00.074Z,52.40
2022-11-30T23:57:02.698Z,50.53
